Sonic Adventure (DX): Boss Rankings

Records: Times | Rings | Scores | Races | Bosses | Freestyle
Leaders: Times | Rings | Scores | Races | Bosses | Freestyle | Overall
Rank Player Percent Points Date
1 Sonicspeedruner 98.0% 43 11-17-17
2 Gamepro011 96.5% 76 11-17-17
3 chainchumper 94.2% 128 11-17-17
4 DarkPolarNight 94.0% 131 11-17-17
5 Austinf 91.8% 181 11-17-17
6 Jawzun 89.1% 239 11-17-17
7 drminus 88.4% 255 11-17-17
8 ethmar 86.8% 290 11-17-17
9 Parax 86.6% 296 11-17-17
10 ike6252 85.7% 316 11-17-17
11 Coolfansonic 84.1% 351 11-17-17
12 Dashjump 83.6% 361 11-17-17
13 Avento128bits 83.4% 365 11-17-17
14 DarkspinesSonic 79.9% 444 11-17-17
15 TheRealShadnic 78.2% 480 11-17-17
16 THC98 77.4% 498 11-17-17
17 F-Man 75.9% 532 11-17-17
18 Marth 74.6% 561 11-17-17
19 Mariobutch 73.2% 591 11-17-17
20 yoshifan 72.9% 598 11-17-17
21 InferSaime 72.0% 618 11-17-17
22 PfoSonic 71.5% 630 11-17-17
23 HyperSonic7701 69.4% 675 11-17-17
24 RPGnutter 68.5% 696 11-17-17
25 Paragod 67.2% 725 11-17-17
26 mike89 66.6% 737 11-17-17
27 frankoredstrato 66.3% 744 11-17-17
28 Groudon199 62.3% 832 11-17-17
28 sonicam 62.3% 832 11-17-17
30 SadisticMystic 62.3% 833 11-17-17
31 xXMegaManXx 61.6% 849 11-17-17
32 Stefan 60.7% 867 11-17-17
33 Diamond 59.2% 900 11-17-17
34 Combo 57.2% 946 11-17-17
35 bertin 56.6% 958 11-17-17
36 SkyLights 54.1% 1014 11-17-17
37 Arch 48.6% 1136 11-17-17
38 Fr3nZy 48.3% 1143 11-17-17
39 francisco 48.1% 1147 11-17-17
40 OmegaDJ 46.5% 1182 11-17-17
41 Andrea Ritsu 46.2% 1188 11-17-17
42 Dekuboy 44.9% 1218 11-17-17
42 Omega Rafael Santos 44.9% 1218 11-17-17
44 P1 Pause 43.7% 1244 11-17-17
45 magnum12 41.3% 1296 11-17-17
46 VeritasDL 41.0% 1304 11-17-17
47 Auriman1 37.4% 1382 11-17-17
48 James_Bertolli 35.4% 1427 11-17-17
49 chaos shadow 35.2% 1431 11-17-17
50 Hunters13 34.1% 1456 11-17-17
51 teamblackarms 33.7% 1465 11-17-17
52 FuzZerd 32.9% 1482 11-17-17
53 Drakodan 32.5% 1491 11-17-17
54 Psymar 32.0% 1503 11-17-17
55 Cyan Ryan 31.7% 1509 11-17-17
56 Quartz 31.6% 1512 11-17-17
57 eggFL 31.1% 1522 11-17-17
58 GerbilSoft 30.4% 1537 11-17-17
58 Jerzia 30.4% 1537 11-17-17
60 BigAL49 30.3% 1540 11-17-17
61 elecmouse101 29.6% 1555 11-17-17
62 Thorn 29.3% 1561 11-17-17
63 Nim 29.3% 1562 11-17-17
64 Webber3000 29.3% 1563 11-17-17
65 videogamemaster777 28.9% 1570 11-17-17
66 Mo Player Banned 27.9% 1593 11-17-17
67 Turbos 27.6% 1599 11-17-17
68 Termon 26.9% 1616 11-17-17
69 Dave Cramer 25.7% 1642 11-17-17
70 Flying Fox 25.6% 1643 11-17-17
71 buddychaos0415 24.6% 1667 11-17-17
72 nuckrieg 24.5% 1669 11-17-17
73 Shadow Jacky 23.4% 1692 11-17-17
74 Cream147 21.1% 1743 11-17-17
75 supersonicfan 20.8% 1750 11-17-17
76 thewaytodawnnn 20.5% 1756 11-17-17
77 MiStEr_ShAoLiN 20.4% 1758 11-17-17
78 NintenDan 20.4% 1759 11-17-17
79 itsPersonnal 20.0% 1767 11-17-17
80 Aitamen 20.0% 1768 11-17-17
81 The T 19.8% 1773 11-17-17
82 Cybrax 19.5% 1778 11-17-17
82 supersonic465 19.5% 1778 11-17-17
84 SonicWinDX 19.4% 1782 11-17-17
85 Cruizer 18.5% 1801 11-17-17
86 VMU Player Banned 17.4% 1825 11-17-17
87 Game_Complete 17.0% 1834 11-17-17
88 The Great Lord Mick 16.7% 1841 11-17-17
89 Questionguy555 15.5% 1868 11-17-17
90 GreatStar 15.4% 1869 11-17-17
91 Spinballwizard 15.0% 1879 11-17-17
92 Sondow 14.1% 1899 11-17-17
92 sonicandamy Player Banned 14.1% 1899 11-17-17
94 Destroyer121121 13.6% 1910 11-17-17
95 GarnetPrincess 13.0% 1922 11-17-17
96 SonicAD 12.0% 1945 11-17-17
97 Don 11.2% 1962 11-17-17
98 Miles9999 11.0% 1966 11-17-17
99 SuperBlitzCraig 10.8% 1971 11-17-17
100 Siavash Tazari 10.5% 1977 11-17-17
101 Psyknux 9.9% 1992 11-17-17
102 Cutiefox 9.8% 1994 11-17-17
103 Werey 9.6% 1998 11-17-17
104 knuckles_sonic8 9.4% 2002 11-17-17
105 joecoolgames 9.4% 2003 11-17-17
106 mauserman 9.0% 2011 11-17-17
107 Badlex727 8.9% 2014 11-17-17
108 EngiNerd 8.5% 2021 11-17-17
109 Sonic Singularity 8.4% 2025 11-17-17
110 dShadow 8.3% 2026 11-17-17
111 Hipertails12 8.3% 2027 11-17-17
112 N 8.0% 2032 11-17-17
113 Aiko 7.9% 2035 11-17-17
114 Shanekilz 7.9% 2036 11-17-17
115 Therio 7.5% 2044 11-17-17
116 Mastakirby 7.4% 2047 11-17-17
117 TommyeAsY 6.8% 2059 11-17-17
118 FocusSight64 6.7% 2061 11-17-17
118 TheChaosEmeraIds 6.7% 2061 11-17-17
120 sonic29887 6.6% 2063 11-17-17
121 Niczur 6.3% 2071 11-17-17
122 Chao_Fan 6.2% 2073 11-17-17
123 djmat 5.9% 2079 11-17-17
124 paulie9990 5.8% 2082 11-17-17
125 HHNNBBHHN 5.7% 2083 11-17-17
125 tal39h 5.7% 2083 11-17-17
127 Sogeking 5.2% 2095 11-17-17
128 Brian_pso 4.9% 2102 11-17-17
129 Chawkk 4.8% 2103 11-17-17
130 MK 4.5% 2110 11-17-17
131 SpinDashMaster 4.5% 2111 11-17-17
132 SilvertheAlmighty 4.4% 2113 11-17-17
133 Crispian 4.1% 2119 11-17-17
134 MastaToken 4.0% 2121 11-17-17
135 SpiritDragon1995 3.8% 2125 11-17-17
136 Sonique Hedgehog 3.7% 2127 11-17-17
137 KinkyCadence 3.5% 2133 11-17-17
138 PsyBorg 3.4% 2135 11-17-17
139 Mad Andy 3.3% 2136 11-17-17
140 FSSRandomvids 3.3% 2138 11-17-17
141 JamminX42 2.9% 2146 11-17-17
141 koinu93 2.9% 2146 11-17-17
143 Rolken 2.8% 2149 11-17-17
143 Xia 2.8% 2149 11-17-17
145 andres430 2.5% 2155 11-17-17
146 shadowblast63 Player Banned 2.2% 2162 11-17-17
147 dabestgamer 2.1% 2163 11-17-17
148 crazy1993 2.1% 2164 11-17-17
149 Illidan 1.9% 2168 11-17-17
150 Richied 1.8% 2169 11-17-17
151 gamer1245 1.7% 2172 11-17-17
152 DanielTheFalcon 1.7% 2173 11-17-17
153 Iwannabelink 1.6% 2175 11-17-17
154 niscool 1.3% 2181 11-17-17
154 oTaiIilLsS 1.3% 2181 11-17-17
156 soniccoloursunleashed 1.3% 2182 11-17-17
157 ieatatsonic 1.0% 2187 11-17-17
157 Redd 1.0% 2187 11-17-17
159 Lil_Dude 0.8% 2193 11-17-17
159 LinksDarkArrows 0.8% 2193 11-17-17
161 Cbwade15 0.4% 2201 11-17-17
162 neaolas 0.4% 2202 11-17-17
163 BlankTH 0.2% 2206 11-17-17
164 Heroes_Hater 0.1% 2207 11-17-17
165 S-MS32X-S 0.0% 2209 11-17-17
166 KaM Mark MaK 0.0% 2211 11-17-17
166 MegabombBlade 0.0% 2211 11-17-17

This page is using the New Data Table System. [FUTURE]

Game ID: 3 | Category ID: 6
Hits: 4,751 | Hits This Month: 11 | DB Calls: 24 | Mem Usage: 5.36 MB | Time: 0.08s | Printable

The Sonic Center v3.9
Copyright 2003-2011 by The Sonic Center Team.